sensor_id;sensor_type;location;lat;lon;timestamp;pressure;altitude;pressure_sealevel;temperature
76541;BMP280;65385;55.772;37.658;2023-05-03T00:00:22;99986.72;;;9.48
76541;BMP280;65385;55.772;37.658;2023-05-03T00:01:24;99984.13;;;9.48
76541;BMP280;65385;55.772;37.658;2023-05-03T00:02:24;99988.28;;;9.49
76541;BMP280;65385;55.772;37.658;2023-05-03T00:03:26;99991.69;;;9.50
76541;BMP280;65385;55.772;37.658;2023-05-03T00:04:27;99993.50;;;9.49
76541;BMP280;65385;55.772;37.658;2023-05-03T00:05:28;99994.28;;;9.50
76541;BMP280;65385;55.772;37.658;2023-05-03T00:06:28;99990.09;;;9.49
76541;BMP280;65385;55.772;37.658;2023-05-03T00:07:30;99978.88;;;9.48
76541;BMP280;65385;55.772;37.658;2023-05-03T00:08:31;99992.72;;;9.49
76541;BMP280;65385;55.772;37.658;2023-05-03T00:09:35;99988.78;;;9.46
76541;BMP280;65385;55.772;37.658;2023-05-03T00:10:35;99987.22;;;9.45
76541;BMP280;65385;55.772;37.658;2023-05-03T00:11:36;99982.00;;;9.45
76541;BMP280;65385;55.772;37.658;2023-05-03T00:12:38;99980.94;;;9.46
76541;BMP280;65385;55.772;37.658;2023-05-03T00:13:40;99981.19;;;9.45
76541;BMP280;65385;55.772;37.658;2023-05-03T00:14:40;99979.63;;;9.44
76541;BMP280;65385;55.772;37.658;2023-05-03T00:15:41;99983.25;;;9.43
76541;BMP280;65385;55.772;37.658;2023-05-03T00:16:42;99978.03;;;9.43
76541;BMP280;65385;55.772;37.658;2023-05-03T00:17:42;99973.59;;;9.43
76541;BMP280;65385;55.772;37.658;2023-05-03T00:18:43;99975.19;;;9.44
76541;BMP280;65385;55.772;37.658;2023-05-03T00:19:44;99974.16;;;9.45
76541;BMP280;65385;55.772;37.658;2023-05-03T00:20:44;99976.78;;;9.45
76541;BMP280;65385;55.772;37.658;2023-05-03T00:21:45;99977.31;;;9.47
76541;BMP280;65385;55.772;37.658;2023-05-03T00:22:45;99972.31;;;9.46
76541;BMP280;65385;55.772;37.658;2023-05-03T00:23:46;99978.34;;;9.46
76541;BMP280;65385;55.772;37.658;2023-05-03T00:24:48;99973.66;;;9.48
76541;BMP280;65385;55.772;37.658;2023-05-03T00:25:54;99963.72;;;9.45
76541;BMP280;65385;55.772;37.658;2023-05-03T00:26:55;99968.69;;;9.47
76541;BMP280;65385;55.772;37.658;2023-05-03T00:27:56;99970.25;;;9.48
76541;BMP280;65385;55.772;37.658;2023-05-03T00:28:56;99970.25;;;9.48
76541;BMP280;65385;55.772;37.658;2023-05-03T00:29:57;99971.56;;;9.45
76541;BMP280;65385;55.772;37.658;2023-05-03T00:31:08;99968.94;;;9.45
76541;BMP280;65385;55.772;37.658;2023-05-03T00:32:10;99967.34;;;9.44
76541;BMP280;65385;55.772;37.658;2023-05-03T00:33:10;99964.75;;;9.44
76541;BMP280;65385;55.772;37.658;2023-05-03T00:34:11;99968.38;;;9.43
76541;BMP280;65385;55.772;37.658;2023-05-03T00:35:12;99970.75;;;9.45
76541;BMP280;65385;55.772;37.658;2023-05-03T00:36:13;99962.13;;;9.44
76541;BMP280;65385;55.772;37.658;2023-05-03T00:37:14;99961.09;;;9.45
76541;BMP280;65385;55.772;37.658;2023-05-03T00:38:15;99962.94;;;9.45
76541;BMP280;65385;55.772;37.658;2023-05-03T00:39:15;99964.47;;;9.46
76541;BMP280;65385;55.772;37.658;2023-05-03T00:40:16;99960.63;;;9.48
76541;BMP280;65385;55.772;37.658;2023-05-03T00:41:18;99964.25;;;9.47
76541;BMP280;65385;55.772;37.658;2023-05-03T00:42:18;99953.81;;;9.47
76541;BMP280;65385;55.772;37.658;2023-05-03T00:43:19;99950.94;;;9.49
76541;BMP280;65385;55.772;37.658;2023-05-03T00:44:20;99965.56;;;9.50
76541;BMP280;65385;55.772;37.658;2023-05-03T00:45:20;99964.78;;;9.49
76541;BMP280;65385;55.772;37.658;2023-05-03T00:46:21;99955.38;;;9.48
76541;BMP280;65385;55.772;37.658;2023-05-03T00:47:22;99952.78;;;9.48
76541;BMP280;65385;55.772;37.658;2023-05-03T00:48:23;99953.00;;;9.47
76541;BMP280;65385;55.772;37.658;2023-05-03T00:49:24;99953.81;;;9.47
76541;BMP280;65385;55.772;37.658;2023-05-03T00:50:25;99948.59;;;9.47
76541;BMP280;65385;55.772;37.658;2023-05-03T00:51:26;99950.41;;;9.47
76541;BMP280;65385;55.772;37.658;2023-05-03T00:52:28;99945.97;;;9.47
76541;BMP280;65385;55.772;37.658;2023-05-03T00:53:29;99936.56;;;9.46
76541;BMP280;65385;55.772;37.658;2023-05-03T00:54:31;99946.78;;;9.48
76541;BMP280;65385;55.772;37.658;2023-05-03T00:55:35;99932.91;;;9.47
76541;BMP280;65385;55.772;37.658;2023-05-03T00:56:36;99943.38;;;9.47
76541;BMP280;65385;55.772;37.658;2023-05-03T00:57:38;99940.22;;;9.45
76541;BMP280;65385;55.772;37.658;2023-05-03T00:58:39;99942.84;;;9.45
76541;BMP280;65385;55.772;37.658;2023-05-03T00:59:39;99944.38;;;9.46
76541;BMP280;65385;55.772;37.658;2023-05-03T01:00:40;99937.06;;;9.43
76541;BMP280;65385;55.772;37.658;2023-05-03T01:01:41;99935.75;;;9.46
76541;BMP280;65385;55.772;37.658;2023-05-03T01:02:42;99933.41;;;9.44
76541;BMP280;65385;55.772;37.658;2023-05-03T01:03:43;99936.25;;;9.43
76541;BMP280;65385;55.772;37.658;2023-05-03T01:04:45;99936.53;;;9.41
76541;BMP280;65385;55.772;37.658;2023-05-03T01:05:56;99932.31;;;9.40
76541;BMP280;65385;55.772;37.658;2023-05-03T01:08:37;99931.72;;;9.33
76541;BMP280;65385;55.772;37.658;2023-05-03T01:10:00;99928.09;;;9.34
76541;BMP280;65385;55.772;37.658;2023-05-03T01:11:08;99919.13;;;9.30
76541;BMP280;65385;55.772;37.658;2023-05-03T01:16:39;99902.91;;;9.28
76541;BMP280;65385;55.772;37.658;2023-05-03T01:17:49;99900.84;;;9.25
76541;BMP280;65385;55.772;37.658;2023-05-03T01:18:53;99913.09;;;9.24
76541;BMP280;65385;55.772;37.658;2023-05-03T01:19:59;99910.72;;;9.23
76541;BMP280;65385;55.772;37.658;2023-05-03T01:21:04;99910.16;;;9.21
76541;BMP280;65385;55.772;37.658;2023-05-03T01:22:14;99925.81;;;9.21
76541;BMP280;65385;55.772;37.658;2023-05-03T01:23:45;99922.91;;;9.17
76541;BMP280;65385;55.772;37.658;2023-05-03T01:25:06;99922.59;;;9.14
76541;BMP280;65385;55.772;37.658;2023-05-03T01:26:25;99924.66;;;9.12
76541;BMP280;65385;55.772;37.658;2023-05-03T01:27:26;99933.53;;;9.11
76541;BMP280;65385;55.772;37.658;2023-05-03T01:28:27;99926.72;;;9.10
76541;BMP280;65385;55.772;37.658;2023-05-03T01:29:27;99918.66;;;9.11
76541;BMP280;65385;55.772;37.658;2023-05-03T01:30:29;99917.38;;;9.14
76541;BMP280;65385;55.772;37.658;2023-05-03T01:31:38;99923.38;;;9.14
76541;BMP280;65385;55.772;37.658;2023-05-03T01:33:09;99926.78;;;9.15
76541;BMP280;65385;55.772;37.658;2023-05-03T01:34:30;99915.56;;;9.14
76541;BMP280;65385;55.772;37.658;2023-05-03T01:35:46;99912.94;;;9.14
76541;BMP280;65385;55.772;37.658;2023-05-03T01:36:53;99910.91;;;9.16
76541;BMP280;65385;55.772;37.658;2023-05-03T01:37:56;99908.81;;;9.18
76541;BMP280;65385;55.772;37.658;2023-05-03T01:38:59;99907.53;;;9.21
76541;BMP280;65385;55.772;37.658;2023-05-03T01:40:03;99895.06;;;9.23
76541;BMP280;65385;55.772;37.658;2023-05-03T01:41:11;99900.03;;;9.24
76541;BMP280;65385;55.772;37.658;2023-05-03T01:42:13;99904.47;;;9.24
76541;BMP280;65385;55.772;37.658;2023-05-03T01:43:15;99908.66;;;9.25
76541;BMP280;65385;55.772;37.658;2023-05-03T01:44:18;99902.41;;;9.26
76541;BMP280;65385;55.772;37.658;2023-05-03T01:45:20;99898.00;;;9.26
76541;BMP280;65385;55.772;37.658;2023-05-03T01:46:22;99896.91;;;9.27
76541;BMP280;65385;55.772;37.658;2023-05-03T01:47:23;99896.91;;;9.27
76541;BMP280;65385;55.772;37.658;2023-05-03T01:48:24;99887.81;;;9.30
76541;BMP280;65385;55.772;37.658;2023-05-03T01:49:25;99901.88;;;9.29
76541;BMP280;65385;55.772;37.658;2023-05-03T01:50:25;99901.44;;;9.32
76541;BMP280;65385;55.772;37.658;2023-05-03T01:51:26;99892.31;;;9.34
76541;BMP280;65385;55.772;37.658;2023-05-03T01:52:27;99889.47;;;9.36
76541;BMP280;65385;55.772;37.658;2023-05-03T01:53:27;99883.25;;;9.42
76541;BMP280;65385;55.772;37.658;2023-05-03T01:54:28;99894.78;;;9.46
76541;BMP280;65385;55.772;37.658;2023-05-03T01:55:29;99889.84;;;9.50
76541;BMP280;65385;55.772;37.658;2023-05-03T01:56:33;99900.34;;;9.55
76541;BMP280;65385;55.772;37.658;2023-05-03T01:57:34;99891.25;;;9.57
76541;BMP280;65385;55.772;37.658;2023-05-03T01:58:35;99887.13;;;9.61
76541;BMP280;65385;55.772;37.658;2023-05-03T01:59:35;99887.16;;;9.66
76541;BMP280;65385;55.772;37.658;2023-05-03T02:00:37;99893.53;;;9.75
76541;BMP280;65385;55.772;37.658;2023-05-03T02:01:37;99899.34;;;9.82
76541;BMP280;65385;55.772;37.658;2023-05-03T02:02:38;99891.53;;;9.87
76541;BMP280;65385;55.772;37.658;2023-05-03T02:03:39;99891.03;;;9.91
76541;BMP280;65385;55.772;37.658;2023-05-03T02:04:40;99894.97;;;9.93
76541;BMP280;65385;55.772;37.658;2023-05-03T02:05:40;99895.53;;;9.95
76541;BMP280;65385;55.772;37.658;2023-05-03T02:06:41;99885.88;;;9.96
76541;BMP280;65385;55.772;37.658;2023-05-03T02:07:41;99879.63;;;9.97
76541;BMP280;65385;55.772;37.658;2023-05-03T02:08:42;99885.63;;;9.97
76541;BMP280;65385;55.772;37.658;2023-05-03T02:09:44;99886.44;;;9.98
76541;BMP280;65385;55.772;37.658;2023-05-03T02:10:45;99886.91;;;10.00
76541;BMP280;65385;55.772;37.658;2023-05-03T02:11:45;99881.47;;;10.01
76541;BMP280;65385;55.772;37.658;2023-05-03T02:12:46;99884.63;;;10.03
76541;BMP280;65385;55.772;37.658;2023-05-03T02:13:48;99888.59;;;10.06
76541;BMP280;65385;55.772;37.658;2023-05-03T02:14:50;99887.25;;;10.08
76541;BMP280;65385;55.772;37.658;2023-05-03T02:15:51;99878.94;;;10.06
76541;BMP280;65385;55.772;37.658;2023-05-03T02:16:52;99883.63;;;10.09
76541;BMP280;65385;55.772;37.658;2023-05-03T02:17:55;99880.22;;;10.09
76541;BMP280;65385;55.772;37.658;2023-05-03T02:18:58;99881.00;;;10.09
76541;BMP280;65385;55.772;37.658;2023-05-03T02:20:00;99881.78;;;10.10
76541;BMP280;65385;55.772;37.658;2023-05-03T02:21:00;99883.13;;;10.12
76541;BMP280;65385;55.772;37.658;2023-05-03T02:22:01;99882.09;;;10.13
76541;BMP280;65385;55.772;37.658;2023-05-03T02:23:03;99880.03;;;10.15
76541;BMP280;65385;55.772;37.658;2023-05-03T02:24:04;99878.47;;;10.19
76541;BMP280;65385;55.772;37.658;2023-05-03T02:25:05;99879.84;;;10.27
76541;BMP280;65385;55.772;37.658;2023-05-03T02:26:07;99881.94;;;10.30
76541;BMP280;65385;55.772;37.658;2023-05-03T02:27:07;99885.88;;;10.32
76541;BMP280;65385;55.772;37.658;2023-05-03T02:28:08;99879.38;;;10.35
76541;BMP280;65385;55.772;37.658;2023-05-03T02:29:09;99874.16;;;10.35
76541;BMP280;65385;55.772;37.658;2023-05-03T02:30:10;99885.13;;;10.37
76541;BMP280;65385;55.772;37.658;2023-05-03T02:31:16;99885.13;;;10.37
76541;BMP280;65385;55.772;37.658;2023-05-03T02:32:17;99879.91;;;10.37
76541;BMP280;65385;55.772;37.658;2023-05-03T02:33:19;99879.91;;;10.37
76541;BMP280;65385;55.772;37.658;2023-05-03T02:34:21;99878.34;;;10.41
76541;BMP280;65385;55.772;37.658;2023-05-03T02:35:24;99877.38;;;10.47
76541;BMP280;65385;55.772;37.658;2023-05-03T02:36:25;99872.38;;;10.51
76541;BMP280;65385;55.772;37.658;2023-05-03T02:37:27;99872.47;;;10.56
76541;BMP280;65385;55.772;37.658;2023-05-03T02:38:27;99879.53;;;10.60
76541;BMP280;65385;55.772;37.658;2023-05-03T02:39:28;99873.25;;;10.66
76541;BMP280;65385;55.772;37.658;2023-05-03T02:40:29;99870.16;;;10.74
76541;BMP280;65385;55.772;37.658;2023-05-03T02:41:30;99872.59;;;10.86
76541;BMP280;65385;55.772;37.658;2023-05-03T02:42:31;99877.91;;;11.01
76541;BMP280;65385;55.772;37.658;2023-05-03T02:43:33;99866.38;;;11.12
76541;BMP280;65385;55.772;37.658;2023-05-03T02:44:34;99876.66;;;11.19
76541;BMP280;65385;55.772;37.658;2023-05-03T02:45:35;99872.47;;;11.23
76541;BMP280;65385;55.772;37.658;2023-05-03T02:46:38;99871.41;;;11.24
76541;BMP280;65385;55.772;37.658;2023-05-03T02:47:41;99876.13;;;11.22
76541;BMP280;65385;55.772;37.658;2023-05-03T02:48:41;99873.00;;;11.20
76541;BMP280;65385;55.772;37.658;2023-05-03T02:49:42;99877.91;;;11.16
76541;BMP280;65385;55.772;37.658;2023-05-03T02:50:43;99869.56;;;11.14
76541;BMP280;65385;55.772;37.658;2023-05-03T02:51:44;99877.66;;;11.13
76541;BMP280;65385;55.772;37.658;2023-05-03T02:52:45;99872.69;;;11.11
76541;BMP280;65385;55.772;37.658;2023-05-03T02:53:46;99870.88;;;11.12
76541;BMP280;65385;55.772;37.658;2023-05-03T02:54:46;99873.72;;;11.10
76541;BMP280;65385;55.772;37.658;2023-05-03T02:55:49;99874.75;;;11.09
76541;BMP280;65385;55.772;37.658;2023-05-03T02:56:50;99870.59;;;11.08
76541;BMP280;65385;55.772;37.658;2023-05-03T02:57:50;99874.00;;;11.09
76541;BMP280;65385;55.772;37.658;2023-05-03T02:58:54;99875.03;;;11.08
76541;BMP280;65385;55.772;37.658;2023-05-03T02:59:55;99871.88;;;11.06
76541;BMP280;65385;55.772;37.658;2023-05-03T03:00:56;99872.66;;;11.06
76541;BMP280;65385;55.772;37.658;2023-05-03T03:01:59;99870.84;;;11.07
76541;BMP280;65385;55.772;37.658;2023-05-03T03:03:00;99874.25;;;11.07
76541;BMP280;65385;55.772;37.658;2023-05-03T03:04:01;99867.19;;;11.08
76541;BMP280;65385;55.772;37.658;2023-05-03T03:05:02;99873.44;;;11.07
76541;BMP280;65385;55.772;37.658;2023-05-03T03:06:02;99873.44;;;11.07
76541;BMP280;65385;55.772;37.658;2023-05-03T03:07:03;99872.94;;;11.10
76541;BMP280;65385;55.772;37.658;2023-05-03T03:08:04;99876.63;;;11.09
76541;BMP280;65385;55.772;37.658;2023-05-03T03:09:06;99883.69;;;11.08
76541;BMP280;65385;55.772;37.658;2023-05-03T03:10:07;99873.22;;;11.08
76541;BMP280;65385;55.772;37.658;2023-05-03T03:11:08;99874.25;;;11.07
76541;BMP280;65385;55.772;37.658;2023-05-03T03:12:08;99874.25;;;11.07
76541;BMP280;65385;55.772;37.658;2023-05-03T03:13:10;99879.22;;;11.04
76541;BMP280;65385;55.772;37.658;2023-05-03T03:14:12;99877.63;;;11.03
76541;BMP280;65385;55.772;37.658;2023-05-03T03:15:13;99873.19;;;11.03
76541;BMP280;65385;55.772;37.658;2023-05-03T03:16:13;99882.34;;;11.01
76541;BMP280;65385;55.772;37.658;2023-05-03T03:17:14;99872.13;;;10.99
76541;BMP280;65385;55.772;37.658;2023-05-03T03:18:15;99877.59;;;10.98
76541;BMP280;65385;55.772;37.658;2023-05-03T03:19:15;99885.44;;;10.98
76541;BMP280;65385;55.772;37.658;2023-05-03T03:20:16;99876.28;;;10.95
76541;BMP280;65385;55.772;37.658;2023-05-03T03:21:20;99870.25;;;10.95
76541;BMP280;65385;55.772;37.658;2023-05-03T03:22:21;99871.06;;;10.95
76541;BMP280;65385;55.772;37.658;2023-05-03T03:23:22;99875.50;;;10.95
76541;BMP280;65385;55.772;37.658;2023-05-03T03:24:22;99868.16;;;10.97
76541;BMP280;65385;55.772;37.658;2023-05-03T03:25:24;99873.41;;;10.97
76541;BMP280;65385;55.772;37.658;2023-05-03T03:26:26;99871.84;;;10.96
76541;BMP280;65385;55.772;37.658;2023-05-03T03:27:27;99875.50;;;10.95
76541;BMP280;65385;55.772;37.658;2023-05-03T03:28:27;99873.16;;;10.93
76541;BMP280;65385;55.772;37.658;2023-05-03T03:29:32;99874.44;;;10.91
76541;BMP280;65385;55.772;37.658;2023-05-03T03:30:34;99879.91;;;10.89
76541;BMP280;65385;55.772;37.658;2023-05-03T03:31:45;99878.88;;;10.90
76541;BMP280;65385;55.772;37.658;2023-05-03T03:32:46;99874.94;;;10.88
76541;BMP280;65385;55.772;37.658;2023-05-03T03:33:53;99881.72;;;10.83
76541;BMP280;65385;55.772;37.658;2023-05-03T03:34:54;99877.28;;;10.84
76541;BMP280;65385;55.772;37.658;2023-05-03T03:35:55;99881.97;;;10.82
76541;BMP280;65385;55.772;37.658;2023-05-03T03:37:00;99886.47;;;10.87
76541;BMP280;65385;55.772;37.658;2023-05-03T03:38:02;99878.63;;;10.87
76541;BMP280;65385;55.772;37.658;2023-05-03T03:39:03;99883.06;;;10.86
76541;BMP280;65385;55.772;37.658;2023-05-03T03:40:05;99884.34;;;10.83
76541;BMP280;65385;55.772;37.658;2023-05-03T03:41:07;99888.78;;;10.83
76541;BMP280;65385;55.772;37.658;2023-05-03T03:42:10;99878.06;;;10.79
76541;BMP280;65385;55.772;37.658;2023-05-03T03:43:12;99875.94;;;10.81
76541;BMP280;65385;55.772;37.658;2023-05-03T03:44:13;99875.47;;;10.79
76541;BMP280;65385;55.772;37.658;2023-05-03T03:45:14;99867.63;;;10.79
76541;BMP280;65385;55.772;37.658;2023-05-03T03:46:16;99878.06;;;10.79
76541;BMP280;65385;55.772;37.658;2023-05-03T03:47:17;99883.31;;;10.79
76541;BMP280;65385;55.772;37.658;2023-05-03T03:48:18;99882.25;;;10.80
76541;BMP280;65385;55.772;37.658;2023-05-03T03:49:19;99878.84;;;10.80
76541;BMP280;65385;55.772;37.658;2023-05-03T03:50:19;99884.88;;;10.80
76541;BMP280;65385;55.772;37.658;2023-05-03T03:51:20;99880.16;;;10.77
76541;BMP280;65385;55.772;37.658;2023-05-03T03:52:21;99892.69;;;10.75
76541;BMP280;65385;55.772;37.658;2023-05-03T03:53:22;99887.44;;;10.75
76541;BMP280;65385;55.772;37.658;2023-05-03T03:54:23;99897.13;;;10.75
76541;BMP280;65385;55.772;37.658;2023-05-03T03:55:24;99904.19;;;10.74
76541;BMP280;65385;55.772;37.658;2023-05-03T03:56:27;99893.47;;;10.76
76541;BMP280;65385;55.772;37.658;2023-05-03T03:57:29;99894.25;;;10.76
76541;BMP280;65385;55.772;37.658;2023-05-03T03:58:31;99894.25;;;10.76
76541;BMP280;65385;55.772;37.658;2023-05-03T03:59:32;99889.81;;;10.77
76541;BMP280;65385;55.772;37.658;2023-05-03T04:00:34;99894.50;;;10.75
76541;BMP280;65385;55.772;37.658;2023-05-03T04:01:44;99901.31;;;10.76
76541;BMP280;65385;55.772;37.658;2023-05-03T04:02:45;99887.69;;;10.74
76541;BMP280;65385;55.772;37.658;2023-05-03T04:03:50;99906.31;;;10.72
76541;BMP280;65385;55.772;37.658;2023-05-03T04:04:51;99904.72;;;10.71
76541;BMP280;65385;55.772;37.658;2023-05-03T04:05:52;99905.75;;;10.70
76541;BMP280;65385;55.772;37.658;2023-05-03T04:06:54;99909.88;;;10.66
76541;BMP280;65385;55.772;37.658;2023-05-03T04:07:58;99907.03;;;10.63
76541;BMP280;65385;55.772;37.658;2023-05-03T04:09:02;99913.03;;;10.63
76541;BMP280;65385;55.772;37.658;2023-05-03T04:10:05;99922.41;;;10.59
76541;BMP280;65385;55.772;37.658;2023-05-03T04:11:12;99917.94;;;10.55
76541;BMP280;65385;55.772;37.658;2023-05-03T04:12:17;99914.31;;;10.56
76541;BMP280;65385;55.772;37.658;2023-05-03T04:13:19;99905.88;;;10.49
76541;BMP280;65385;55.772;37.658;2023-05-03T04:14:23;99908.19;;;10.45
76541;BMP280;65385;55.772;37.658;2023-05-03T04:15:24;99912.91;;;10.43
76541;BMP280;65385;55.772;37.658;2023-05-03T04:16:26;99919.41;;;10.41
76541;BMP280;65385;55.772;37.658;2023-05-03T04:17:27;99922.00;;;10.35
76541;BMP280;65385;55.772;37.658;2023-05-03T04:18:28;99907.56;;;10.28
76541;BMP280;65385;55.772;37.658;2023-05-03T04:19:31;99912.78;;;10.28
76541;BMP280;65385;55.772;37.658;2023-05-03T04:20:32;99912.47;;;10.24
76541;BMP280;65385;55.772;37.658;2023-05-03T04:21:35;99910.66;;;10.20
76541;BMP280;65385;55.772;37.658;2023-05-03T04:22:36;99907.47;;;10.18
76541;BMP280;65385;55.772;37.658;2023-05-03T04:23:41;99901.69;;;10.16
76541;BMP280;65385;55.772;37.658;2023-05-03T04:24:44;99915.06;;;10.19
76541;BMP280;65385;55.772;37.658;2023-05-03T04:25:46;99904.31;;;10.16
76541;BMP280;65385;55.772;37.658;2023-05-03T04:26:49;99903.81;;;10.14
76541;BMP280;65385;55.772;37.658;2023-05-03T04:28:00;99910.06;;;10.13
76541;BMP280;65385;55.772;37.658;2023-05-03T04:29:02;99916.88;;;10.14
76541;BMP280;65385;55.772;37.658;2023-05-03T04:30:04;99910.06;;;10.13
76541;BMP280;65385;55.772;37.658;2023-05-03T04:31:06;99910.06;;;10.13
76541;BMP280;65385;55.772;37.658;2023-05-03T04:32:09;99910.88;;;10.13
76541;BMP280;65385;55.772;37.658;2023-05-03T04:33:12;99907.19;;;10.14
76541;BMP280;65385;55.772;37.658;2023-05-03T04:34:13;99903.03;;;10.13
76541;BMP280;65385;55.772;37.658;2023-05-03T04:35:17;99906.34;;;10.09
76541;BMP280;65385;55.772;37.658;2023-05-03T04:36:20;99896.69;;;10.09
76541;BMP280;65385;55.772;37.658;2023-05-03T04:37:25;99899.03;;;10.06
76541;BMP280;65385;55.772;37.658;2023-05-03T04:38:26;99904.25;;;10.06
76541;BMP280;65385;55.772;37.658;2023-05-03T04:39:29;99904.25;;;10.06
76541;BMP280;65385;55.772;37.658;2023-05-03T04:40:30;99912.59;;;10.08
76541;BMP280;65385;55.772;37.658;2023-05-03T04:41:36;99909.97;;;10.03
76541;BMP280;65385;55.772;37.658;2023-05-03T04:42:37;99915.75;;;10.05
76541;BMP280;65385;55.772;37.658;2023-05-03T04:43:37;99911.56;;;10.09
76541;BMP280;65385;55.772;37.658;2023-05-03T04:44:39;99917.81;;;10.08
76541;BMP280;65385;55.772;37.658;2023-05-03T04:45:40;99919.94;;;10.06
76541;BMP280;65385;55.772;37.658;2023-05-03T04:46:44;99922.56;;;10.06
76541;BMP280;65385;55.772;37.658;2023-05-03T04:47:45;99917.56;;;10.04
76541;BMP280;65385;55.772;37.658;2023-05-03T04:48:46;99930.88;;;10.03
76541;BMP280;65385;55.772;37.658;2023-05-03T04:49:47;99925.88;;;10.01
76541;BMP280;65385;55.772;37.658;2023-05-03T04:50:47;99924.06;;;10.02
76541;BMP280;65385;55.772;37.658;2023-05-03T04:51:50;99931.91;;;10.02
76541;BMP280;65385;55.772;37.658;2023-05-03T04:52:52;99923.28;;;10.01
76541;BMP280;65385;55.772;37.658;2023-05-03T04:53:55;99930.88;;;10.03
76541;BMP280;65385;55.772;37.658;2023-05-03T04:54:56;99926.66;;;10.02
76541;BMP280;65385;55.772;37.658;2023-05-03T04:55:57;99922.00;;;10.04
76541;BMP280;65385;55.772;37.658;2023-05-03T04:56:58;99930.06;;;10.02
76541;BMP280;65385;55.772;37.658;2023-05-03T04:57:59;99925.66;;;10.03
76541;BMP280;65385;55.772;37.658;2023-05-03T04:59:01;99923.59;;;10.05
76541;BMP280;65385;55.772;37.658;2023-05-03T05:00:02;99930.06;;;10.02
76541;BMP280;65385;55.772;37.658;2023-05-03T05:01:03;99931.34;;;10.00
76541;BMP280;65385;55.772;37.658;2023-05-03T05:02:05;99936.06;;;9.98
76541;BMP280;65385;55.772;37.658;2023-05-03T05:03:05;99928.72;;;9.95
76541;BMP280;65385;55.772;37.658;2023-05-03T05:04:07;99936.53;;;9.95
76541;BMP280;65385;55.772;37.658;2023-05-03T05:05:14;99920.88;;;9.95
76541;BMP280;65385;55.772;37.658;2023-05-03T05:06:16;99932.34;;;9.94
76541;BMP280;65385;55.772;37.658;2023-05-03T05:07:17;99930.00;;;9.92
76541;BMP280;65385;55.772;37.658;2023-05-03T05:08:18;99923.41;;;9.89
76541;BMP280;65385;55.772;37.658;2023-05-03T05:09:27;99937.84;;;9.92
76541;BMP280;65385;55.772;37.658;2023-05-03T05:10:30;99934.44;;;9.92
76541;BMP280;65385;55.772;37.658;2023-05-03T05:11:32;99925.31;;;9.94
76541;BMP280;65385;55.772;37.658;2023-05-03T05:12:32;99937.63;;;9.99
76541;BMP280;65385;55.772;37.658;2023-05-03T05:13:36;99926.91;;;10.00
76541;BMP280;65385;55.772;37.658;2023-05-03T05:14:37;99928.03;;;10.04
76541;BMP280;65385;55.772;37.658;2023-05-03T05:15:38;99928.59;;;10.11
76541;BMP280;65385;55.772;37.658;2023-05-03T05:16:39;99936.47;;;10.16
76541;BMP280;65385;55.772;37.658;2023-05-03T05:17:40;99936.00;;;10.24
76541;BMP280;65385;55.772;37.658;2023-05-03T05:18:42;99934.50;;;10.28
76541;BMP280;65385;55.772;37.658;2023-05-03T05:19:44;99939.50;;;10.35
76541;BMP280;65385;55.772;37.658;2023-05-03T05:20:45;99935.38;;;10.39
76541;BMP280;65385;55.772;37.658;2023-05-03T05:21:46;99928.59;;;10.43
76541;BMP280;65385;55.772;37.658;2023-05-03T05:22:47;99934.41;;;10.50
76541;BMP280;65385;55.772;37.658;2023-05-03T05:23:48;99925.75;;;10.50
76541;BMP280;65385;55.772;37.658;2023-05-03T05:24:49;99933.88;;;10.53
76541;BMP280;65385;55.772;37.658;2023-05-03T05:25:50;99926.03;;;10.53
76541;BMP280;65385;55.772;37.658;2023-05-03T05:26:53;99930.56;;;10.63
76541;BMP280;65385;55.772;37.658;2023-05-03T05:27:53;99934.53;;;10.70
76541;BMP280;65385;55.772;37.658;2023-05-03T05:28:54;99928.56;;;10.80
76541;BMP280;65385;55.772;37.658;2023-05-03T05:29:55;99934.63;;;10.91
76541;BMP280;65385;55.772;37.658;2023-05-03T05:30:55;99925.22;;;10.95
76541;BMP280;65385;55.772;37.658;2023-05-03T05:31:56;99933.66;;;11.07
76541;BMP280;65385;55.772;37.658;2023-05-03T05:32:59;99929.47;;;11.06
76541;BMP280;65385;55.772;37.658;2023-05-03T05:33:59;99938.41;;;11.15
76541;BMP280;65385;55.772;37.658;2023-05-03T05:35:01;99933.72;;;11.22
76541;BMP280;65385;55.772;37.658;2023-05-03T05:36:03;99932.16;;;11.31
76541;BMP280;65385;55.772;37.658;2023-05-03T05:37:05;99935.59;;;11.37
76541;BMP280;65385;55.772;37.658;2023-05-03T05:38:07;99928.03;;;11.45
76541;BMP280;65385;55.772;37.658;2023-05-03T05:39:08;99932.50;;;11.55
76541;BMP280;65385;55.772;37.658;2023-05-03T05:40:10;99922.81;;;11.55
76541;BMP280;65385;55.772;37.658;2023-05-03T05:41:31;99929.38;;;11.63
76541;BMP280;65385;55.772;37.658;2023-05-03T05:42:45;99928.84;;;11.61
76541;BMP280;65385;55.772;37.658;2023-05-03T05:43:48;99922.31;;;11.68
76541;BMP280;65385;55.772;37.658;2023-05-03T05:44:49;99924.94;;;11.73
76541;BMP280;65385;55.772;37.658;2023-05-03T05:45:51;99926.28;;;11.81
76541;BMP280;65385;55.772;37.658;2023-05-03T05:46:53;99924.97;;;11.83
76541;BMP280;65385;55.772;37.658;2023-05-03T05:47:54;99928.63;;;11.82
76541;BMP280;65385;55.772;37.658;2023-05-03T05:48:54;99924.47;;;11.87
76541;BMP280;65385;55.772;37.658;2023-05-03T05:49:56;99919.97;;;11.87
76541;BMP280;65385;55.772;37.658;2023-05-03T05:50:56;99931.00;;;11.94
76541;BMP280;65385;55.772;37.658;2023-05-03T05:51:57;99933.09;;;11.97
76541;BMP280;65385;55.772;37.658;2023-05-03T05:52:57;99927.06;;;12.07
76541;BMP280;65385;55.772;37.658;2023-05-03T05:54:01;99927.56;;;12.19
76541;BMP280;65385;55.772;37.658;2023-05-03T05:55:03;99928.63;;;12.33
76541;BMP280;65385;55.772;37.658;2023-05-03T05:56:04;99933.34;;;12.46
76541;BMP280;65385;55.772;37.658;2023-05-03T05:57:07;99934.59;;;12.64
76541;BMP280;65385;55.772;37.658;2023-05-03T05:58:08;99935.38;;;12.74
76541;BMP280;65385;55.772;37.658;2023-05-03T05:59:16;99936.66;;;12.82
76541;BMP280;65385;55.772;37.658;2023-05-03T06:00:17;99929.56;;;12.77
76541;BMP280;65385;55.772;37.658;2023-05-03T06:01:18;99929.31;;;12.74
76541;BMP280;65385;55.772;37.658;2023-05-03T06:02:20;99933.53;;;12.70